createdAt,value
2019-05-11T00:01:05.234Z,2.00
2019-05-11T00:03:35.439Z,2.10
2019-05-11T00:06:05.638Z,2.30
2019-05-11T00:08:35.966Z,2.15
2019-05-11T00:11:06.183Z,1.90
2019-05-11T00:13:36.486Z,2.06
2019-05-11T00:16:06.689Z,2.26
2019-05-11T00:18:37.026Z,2.08
2019-05-11T00:21:07.249Z,2.25
2019-05-11T00:23:37.546Z,2.17
2019-05-11T00:26:07.902Z,2.58
2019-05-11T00:28:38.003Z,1.94
2019-05-11T00:31:08.093Z,2.10
2019-05-11T00:33:38.444Z,1.90
2019-05-11T00:36:08.595Z,1.75
2019-05-11T00:38:38.550Z,2.00
2019-05-11T00:41:08.777Z,1.90
2019-05-11T00:43:38.738Z,2.20
2019-05-11T00:46:08.730Z,1.98
2019-05-11T00:48:38.665Z,1.82
2019-05-11T00:51:08.966Z,2.20
2019-05-11T00:53:38.901Z,1.95
2019-05-11T00:56:09.222Z,2.10
2019-05-11T00:58:38.817Z,2.00
2019-05-11T01:01:09.100Z,1.80
2019-05-11T01:03:38.985Z,1.92
2019-05-11T01:06:08.976Z,1.90
2019-05-11T01:08:39.433Z,1.80
2019-05-11T01:11:09.067Z,2.05
2019-05-11T01:13:39.052Z,1.77
2019-05-11T01:16:09.135Z,1.60
2019-05-11T01:18:39.181Z,1.80
2019-05-11T01:21:09.259Z,1.70
2019-05-11T01:23:39.215Z,1.98
2019-05-11T01:26:09.311Z,2.00
2019-05-11T01:28:39.244Z,2.00
2019-05-11T01:31:09.377Z,2.00
2019-05-11T01:33:39.335Z,1.67
2019-05-11T01:36:09.389Z,1.70
2019-05-11T01:38:39.351Z,1.60
2019-05-11T01:41:09.456Z,1.86
2019-05-11T01:43:39.476Z,1.85
2019-05-11T01:46:09.472Z,1.82
2019-05-11T01:48:39.436Z,1.92
2019-05-11T01:51:09.893Z,1.80
2019-05-11T01:53:39.620Z,1.80
2019-05-11T01:56:09.652Z,1.70
2019-05-11T01:58:39.601Z,1.72
2019-05-11T02:01:09.774Z,2.00
2019-05-11T02:03:40.654Z,1.88
2019-05-11T02:06:10.051Z,1.60
2019-05-11T02:08:39.848Z,2.30
2019-05-11T02:11:16.049Z,2.10
2019-05-11T02:13:41.384Z,2.47
2019-05-11T02:16:10.762Z,1.85
2019-05-11T02:18:40.151Z,2.17
2019-05-11T02:21:10.045Z,1.90
2019-05-11T02:23:40.002Z,2.10
2019-05-11T02:26:10.062Z,2.02
2019-05-11T02:28:40.083Z,1.70
2019-05-11T02:31:10.573Z,1.85
2019-05-11T02:33:40.131Z,1.85
2019-05-11T02:36:10.214Z,2.06
2019-05-11T02:38:40.284Z,1.60
2019-05-11T02:41:10.645Z,1.70
2019-05-11T02:43:40.553Z,1.90
2019-05-11T02:46:10.674Z,2.00
2019-05-11T02:48:40.344Z,2.40
2019-05-11T02:51:11.085Z,1.80
2019-05-11T02:53:42.697Z,1.57
2019-05-11T02:56:12.080Z,1.72
2019-05-11T02:58:42.314Z,1.92
2019-05-11T03:01:11.778Z,2.00
2019-05-11T03:03:42.138Z,2.27
2019-05-11T03:06:11.764Z,1.65
2019-05-11T03:08:41.177Z,1.90
2019-05-11T03:11:10.674Z,2.03
2019-05-11T03:13:40.724Z,2.00
2019-05-11T03:16:11.531Z,1.93
2019-05-11T03:18:40.904Z,1.70
2019-05-11T03:21:10.819Z,1.83
2019-05-11T03:23:40.750Z,1.80
2019-05-11T03:26:10.840Z,2.00
2019-05-11T03:28:40.781Z,2.10
2019-05-11T03:31:10.168Z,2.20
2019-05-11T03:33:39.535Z,2.53
2019-05-11T03:36:08.933Z,2.00
2019-05-11T03:38:38.298Z,2.35
2019-05-11T03:41:07.763Z,2.40
2019-05-11T03:43:37.141Z,2.37
2019-05-11T03:46:06.513Z,2.20
2019-05-11T03:48:36.886Z,2.65
2019-05-11T03:51:06.243Z,2.20
2019-05-11T03:53:35.629Z,2.70
2019-05-11T03:56:05.013Z,2.10
2019-05-11T03:58:34.384Z,2.50
2019-05-11T04:01:03.771Z,2.27
2019-05-11T04:03:33.143Z,2.75
2019-05-11T04:06:02.529Z,3.17
2019-05-11T04:08:32.196Z,2.77
2019-05-11T04:11:01.575Z,2.70
2019-05-11T04:13:30.954Z,3.87
2019-05-11T04:16:00.701Z,4.87
2019-05-11T04:18:31.052Z,4.95
2019-05-11T04:21:01.259Z,4.06
2019-05-11T04:23:31.470Z,5.86
2019-05-11T04:26:01.808Z,4.32
2019-05-11T04:28:31.936Z,4.62
2019-05-11T04:31:02.243Z,4.55
2019-05-11T04:33:33.333Z,4.24
2019-05-11T04:36:03.971Z,3.80
2019-05-11T04:38:33.417Z,3.85
2019-05-11T04:41:03.357Z,3.85
2019-05-11T04:43:33.484Z,3.40
2019-05-11T04:46:03.807Z,3.60
2019-05-11T04:48:33.991Z,3.20
2019-05-11T04:51:04.418Z,3.33
2019-05-11T04:53:34.769Z,2.85
2019-05-11T04:56:04.793Z,3.02
2019-05-11T04:58:34.962Z,3.00
2019-05-11T05:01:05.393Z,2.92
2019-05-11T05:03:40.663Z,3.08
2019-05-11T05:06:24.341Z,3.10
2019-05-11T05:08:38.111Z,3.00
2019-05-11T05:11:07.495Z,3.12
2019-05-11T05:13:37.858Z,3.10
2019-05-11T05:16:07.242Z,2.85
2019-05-11T05:18:37.287Z,2.58
2019-05-11T05:21:07.244Z,3.10
2019-05-11T05:23:37.761Z,2.95
2019-05-11T05:26:07.816Z,2.76
2019-05-11T05:28:38.014Z,2.68
2019-05-11T05:31:08.206Z,2.58
2019-05-11T05:33:38.495Z,2.65
2019-05-11T05:36:08.624Z,3.05
2019-05-11T05:38:39.089Z,2.92
2019-05-11T05:41:09.162Z,2.86
2019-05-11T05:43:39.414Z,4.06
2019-05-11T05:46:09.584Z,4.10
2019-05-11T05:48:39.804Z,3.75
2019-05-11T05:51:10.115Z,3.90
2019-05-11T05:53:40.341Z,3.02
2019-05-11T05:56:10.630Z,2.80
2019-05-11T05:58:40.856Z,2.45
2019-05-11T06:01:11.190Z,2.84
2019-05-11T06:03:41.351Z,2.48
2019-05-11T06:06:11.672Z,3.22
2019-05-11T06:08:43.279Z,2.65
2019-05-11T06:11:13.218Z,2.85
2019-05-11T06:13:45.646Z,2.70
2019-05-11T06:16:14.287Z,2.70
2019-05-11T06:18:44.333Z,2.90
2019-05-11T06:21:14.216Z,2.77
2019-05-11T06:23:44.394Z,2.60
2019-05-11T06:26:14.694Z,2.46
2019-05-11T06:28:45.228Z,2.80
2019-05-11T06:31:15.164Z,2.37
2019-05-11T06:33:45.418Z,2.35
2019-05-11T06:36:14.798Z,2.60
2019-05-11T06:38:44.842Z,2.60
2019-05-11T06:41:15.224Z,2.65
2019-05-11T06:44:00.688Z,2.27
2019-05-11T06:46:16.701Z,2.47
2019-05-11T06:48:46.181Z,2.33
2019-05-11T06:51:16.279Z,2.85
2019-05-11T06:53:46.491Z,2.22
2019-05-11T06:56:16.908Z,2.36
2019-05-11T06:58:46.919Z,2.90
2019-05-11T07:01:17.340Z,2.25
2019-05-11T07:03:47.591Z,2.92
2019-05-11T07:06:17.975Z,2.30
2019-05-11T07:08:48.102Z,2.60
2019-05-11T07:11:18.340Z,2.90
2019-05-11T07:13:48.510Z,2.22
2019-05-11T07:16:18.873Z,2.14
2019-05-11T07:18:48.262Z,2.22
2019-05-11T07:21:17.642Z,1.90
2019-05-11T07:23:47.027Z,2.02
2019-05-11T07:26:16.594Z,2.00
2019-05-11T07:28:46.073Z,2.42
2019-05-11T07:31:15.595Z,2.22
2019-05-11T07:33:45.690Z,1.90
2019-05-11T07:36:17.595Z,1.87
2019-05-11T07:38:48.729Z,1.73
2019-05-11T07:41:18.144Z,2.10
2019-05-11T07:43:48.487Z,1.60
2019-05-11T07:46:18.353Z,1.40
2019-05-11T07:48:48.074Z,1.20
2019-05-11T07:51:18.263Z,1.15
2019-05-11T07:53:48.607Z,1.60
2019-05-11T07:56:18.923Z,1.60
2019-05-11T07:58:48.427Z,1.65
2019-05-11T08:01:18.829Z,1.57
2019-05-11T08:03:48.669Z,1.60
2019-05-11T08:06:19.040Z,1.47
2019-05-11T08:08:49.392Z,1.10
2019-05-11T08:11:19.754Z,1.50
2019-05-11T08:13:49.132Z,1.40
2019-05-11T08:16:18.759Z,1.75
2019-05-11T08:18:48.443Z,1.82
2019-05-11T08:21:18.089Z,1.60
2019-05-11T08:23:48.358Z,1.60
2019-05-11T08:26:19.025Z,1.80
2019-05-11T08:28:48.802Z,1.75
2019-05-11T08:31:18.779Z,1.47
2019-05-11T08:33:48.314Z,1.02
2019-05-11T08:36:18.513Z,1.10
2019-05-11T08:38:48.446Z,1.15
2019-05-11T08:41:18.551Z,1.20
2019-05-11T08:43:49.065Z,1.07
2019-05-11T08:46:18.743Z,1.10
2019-05-11T08:48:48.134Z,1.03
2019-05-11T08:51:18.751Z,0.90
2019-05-11T08:53:48.291Z,0.98
2019-05-11T08:56:18.882Z,1.07
2019-05-11T08:58:49.173Z,1.00
2019-05-11T09:01:18.723Z,1.00
2019-05-11T09:03:49.098Z,1.00
2019-05-11T09:06:18.440Z,1.07
2019-05-11T09:08:49.356Z,1.10
2019-05-11T09:11:19.340Z,1.20
2019-05-11T09:13:49.081Z,0.97
2019-05-11T09:16:19.422Z,1.00
2019-05-11T09:18:48.888Z,1.10
2019-05-11T09:21:18.998Z,1.20
2019-05-11T09:23:48.827Z,1.27
2019-05-11T09:26:18.455Z,1.17
2019-05-11T09:28:47.875Z,1.07
2019-05-11T09:31:18.859Z,1.23
2019-05-11T09:33:48.379Z,1.00
2019-05-11T09:36:18.285Z,1.37
2019-05-11T09:38:48.944Z,1.07
2019-05-11T09:41:18.464Z,1.10
2019-05-11T09:43:48.817Z,1.22
2019-05-11T09:46:18.989Z,1.35
2019-05-11T09:48:48.889Z,1.40
2019-05-11T09:51:18.627Z,1.50
2019-05-11T09:53:48.520Z,1.65
2019-05-11T09:56:18.913Z,1.57
2019-05-11T09:58:48.310Z,1.40
2019-05-11T10:01:18.491Z,1.50
2019-05-11T10:03:48.893Z,1.53
2019-05-11T10:06:19.137Z,1.60
2019-05-11T10:08:48.891Z,1.22
2019-05-11T10:11:19.128Z,1.40
2019-05-11T10:13:48.564Z,1.52
2019-05-11T10:16:18.276Z,1.27
2019-05-11T10:18:49.191Z,1.67
2019-05-11T10:21:19.021Z,2.22
2019-05-11T10:23:48.897Z,1.77
2019-05-11T10:26:18.982Z,1.60
2019-05-11T10:28:48.507Z,1.65
2019-05-11T10:31:18.355Z,1.20
2019-05-11T10:33:48.958Z,1.30
2019-05-11T10:36:19.095Z,1.30
2019-05-11T10:38:49.521Z,1.10
2019-05-11T10:41:18.924Z,1.40
2019-05-11T10:43:49.322Z,1.20
2019-05-11T10:46:23.241Z,1.60
2019-05-11T10:48:51.132Z,1.50
2019-05-11T10:51:20.775Z,1.30
2019-05-11T10:53:52.084Z,1.37
2019-05-11T10:56:21.312Z,1.47
2019-05-11T10:58:50.692Z,1.35
2019-05-11T11:01:20.608Z,1.50
2019-05-11T11:03:50.772Z,1.44
2019-05-11T11:06:21.134Z,1.56
2019-05-11T11:08:51.358Z,1.42
2019-05-11T11:11:21.572Z,1.30
2019-05-11T11:13:51.806Z,1.52
2019-05-11T11:16:35.764Z,1.20
2019-05-11T11:18:53.781Z,1.35
2019-05-11T11:21:23.769Z,1.30
2019-05-11T11:23:53.845Z,1.47
2019-05-11T11:26:24.131Z,1.20
2019-05-11T11:28:54.358Z,1.20
2019-05-11T11:31:24.696Z,1.60
2019-05-11T11:33:57.803Z,1.67
2019-05-11T11:36:28.214Z,1.35
2019-05-11T11:38:58.404Z,1.40
2019-05-11T11:41:29.913Z,1.47
2019-05-11T11:43:58.960Z,1.60
2019-05-11T11:46:28.336Z,1.70
2019-05-11T11:48:58.186Z,1.62
2019-05-11T11:51:28.617Z,1.40
2019-05-11T11:53:58.484Z,1.50
2019-05-11T11:56:28.378Z,1.62
2019-05-11T11:58:58.077Z,1.44
2019-05-11T12:01:28.205Z,1.32
2019-05-11T12:03:58.580Z,1.60
2019-05-11T12:06:28.188Z,1.40
2019-05-11T12:08:58.678Z,1.80
2019-05-11T12:11:28.064Z,1.40
2019-05-11T12:13:58.078Z,1.27
2019-05-11T12:16:28.309Z,1.50
2019-05-11T12:18:58.451Z,1.35
2019-05-11T12:21:28.804Z,1.30
2019-05-11T12:23:58.979Z,1.44
2019-05-11T12:26:29.337Z,1.60
2019-05-11T12:28:59.513Z,1.67
2019-05-11T12:31:32.596Z,1.40
2019-05-11T12:34:01.232Z,1.20
2019-05-11T12:36:30.617Z,1.60
2019-05-11T12:39:00.579Z,1.27
2019-05-11T12:41:30.853Z,1.27
2019-05-11T12:44:01.117Z,1.32
2019-05-11T12:46:31.451Z,1.34
2019-05-11T12:49:01.663Z,1.40
2019-05-11T12:51:31.883Z,1.37
2019-05-11T12:54:02.079Z,1.40
2019-05-11T12:56:32.395Z,1.46
2019-05-11T12:59:02.628Z,1.30
2019-05-11T13:01:32.936Z,1.40
2019-05-11T13:04:03.121Z,1.45
2019-05-11T13:06:33.482Z,1.20
2019-05-11T13:09:03.988Z,1.35
2019-05-11T13:11:33.899Z,1.67
2019-05-11T13:14:04.135Z,1.27
2019-05-11T13:16:34.388Z,1.50
2019-05-11T13:19:04.551Z,1.65
2019-05-11T13:21:34.937Z,1.50
2019-05-11T13:24:05.075Z,1.57
2019-05-11T13:26:37.451Z,1.56
2019-05-11T13:29:07.756Z,1.50
2019-05-11T13:31:38.373Z,1.30
2019-05-11T13:34:08.340Z,1.60
2019-05-11T13:36:38.307Z,1.52
2019-05-11T13:39:08.859Z,1.50
2019-05-11T13:41:38.486Z,1.50
2019-05-11T13:44:08.157Z,1.70
2019-05-11T13:46:38.867Z,1.57
2019-05-11T13:49:08.698Z,1.40
2019-05-11T13:51:38.786Z,1.32
2019-05-11T13:54:08.559Z,1.42
2019-05-11T13:56:38.081Z,1.40
2019-05-11T13:59:10.650Z,1.75
2019-05-11T14:01:40.293Z,1.60
2019-05-11T14:04:09.682Z,1.52
2019-05-11T14:06:39.083Z,1.33
2019-05-11T14:09:09.031Z,1.60
2019-05-11T14:11:39.222Z,1.67
2019-05-11T14:14:08.665Z,1.50
2019-05-11T14:16:38.136Z,1.60
2019-05-11T14:19:08.671Z,1.20
2019-05-11T14:21:38.562Z,1.40
2019-05-11T14:24:09.098Z,1.20
2019-05-11T14:26:38.770Z,1.30
2019-05-11T14:29:08.675Z,1.40
2019-05-11T14:31:38.902Z,1.00
2019-05-11T14:34:09.084Z,1.00
2019-05-11T14:36:38.968Z,1.30
2019-05-11T14:39:08.810Z,1.17
2019-05-11T14:41:38.431Z,1.40
2019-05-11T14:44:08.816Z,1.30
2019-05-11T14:46:38.689Z,1.20
2019-05-11T14:49:08.155Z,1.70
2019-05-11T14:51:39.186Z,1.50
2019-05-11T14:54:08.701Z,1.63
2019-05-11T14:56:38.337Z,1.25
2019-05-11T14:59:09.211Z,1.47
2019-05-11T15:01:38.675Z,1.57
2019-05-11T15:04:08.974Z,1.70
2019-05-11T15:06:38.831Z,1.43
2019-05-11T15:09:08.558Z,1.27
2019-05-11T15:11:38.858Z,1.30
2019-05-11T15:14:08.419Z,1.32
2019-05-11T15:16:38.550Z,1.50
2019-05-11T15:19:08.279Z,1.60
2019-05-11T15:21:38.741Z,1.20
2019-05-11T15:24:09.291Z,1.30
2019-05-11T15:26:39.121Z,1.20
2019-05-11T15:29:08.509Z,1.23
2019-05-11T15:31:38.279Z,1.30
2019-05-11T15:34:08.834Z,1.40
2019-05-11T15:36:38.839Z,1.50
2019-05-11T15:39:08.353Z,1.23
2019-05-11T15:41:38.827Z,1.37
2019-05-11T15:44:12.045Z,1.35
2019-05-11T15:46:40.443Z,1.50
2019-05-11T15:49:09.837Z,1.30
2019-05-11T15:51:41.218Z,1.50
2019-05-11T15:54:10.579Z,1.57
2019-05-11T15:56:40.247Z,1.50
2019-05-11T15:59:09.622Z,1.60
2019-05-11T16:01:41.193Z,1.50
2019-05-11T16:04:10.393Z,1.52
2019-05-11T16:06:39.758Z,1.60
2019-05-11T16:09:09.158Z,1.50
2019-05-11T16:11:39.028Z,1.33
2019-05-11T16:14:09.018Z,1.40
2019-05-11T16:16:39.208Z,1.80
2019-05-11T16:19:14.819Z,1.77
2019-05-11T16:21:40.758Z,1.77
2019-05-11T16:24:10.390Z,1.50
2019-05-11T16:26:39.777Z,1.53
2019-05-11T16:29:11.443Z,1.40
2019-05-11T16:31:40.505Z,1.40
2019-05-11T16:34:09.882Z,1.57
2019-05-11T16:36:39.261Z,1.30
2019-05-11T16:39:10.439Z,1.50
2019-05-11T16:41:39.981Z,1.80
2019-05-11T16:44:09.370Z,1.57
2019-05-11T16:46:39.069Z,1.60
2019-05-11T16:49:10.737Z,1.92
2019-05-11T16:51:39.827Z,1.70
2019-05-11T16:54:09.221Z,1.50
2019-05-11T16:56:38.593Z,1.42
2019-05-11T16:59:08.460Z,1.70
2019-05-11T17:01:38.432Z,1.60
2019-05-11T17:04:08.999Z,1.60
2019-05-11T17:06:38.795Z,1.53
2019-05-11T17:09:09.037Z,1.60
2019-05-11T17:11:38.674Z,1.67
2019-05-11T17:14:08.569Z,1.50
2019-05-11T17:16:38.925Z,1.30
2019-05-11T17:19:09.226Z,1.40
2019-05-11T17:21:38.630Z,1.60
2019-05-11T17:24:08.668Z,1.25
2019-05-11T17:26:38.768Z,1.32
2019-05-11T17:29:10.081Z,1.45
2019-05-11T17:31:40.638Z,1.50
2019-05-11T17:34:10.034Z,1.43
2019-05-11T17:36:39.604Z,1.50
2019-05-11T17:39:09.862Z,1.50
2019-05-11T17:41:40.048Z,1.50
2019-05-11T17:44:10.417Z,1.50
2019-05-11T17:46:40.518Z,1.30
2019-05-11T17:49:10.907Z,1.57
2019-05-11T17:51:40.871Z,1.47
2019-05-11T17:54:11.485Z,1.60
2019-05-11T17:56:41.355Z,1.25
2019-05-11T17:59:11.567Z,1.37
2019-05-11T18:01:41.747Z,1.10
2019-05-11T18:04:12.008Z,1.47
2019-05-11T18:06:42.186Z,1.72
2019-05-11T18:09:12.438Z,1.40
2019-05-11T18:11:42.661Z,1.47
2019-05-11T18:14:12.814Z,1.42
2019-05-11T18:16:43.018Z,1.50
2019-05-11T18:19:13.268Z,1.43
2019-05-11T18:21:43.425Z,1.77
2019-05-11T18:24:13.873Z,1.47
2019-05-11T18:26:43.974Z,1.60
2019-05-11T18:29:14.479Z,1.67
2019-05-11T18:31:44.297Z,1.90
2019-05-11T18:34:14.569Z,1.64
2019-05-11T18:36:44.845Z,1.87
2019-05-11T18:39:14.934Z,1.57
2019-05-11T18:41:45.215Z,1.72
2019-05-11T18:44:15.417Z,2.10
2019-05-11T18:46:48.017Z,1.70
2019-05-11T18:49:17.935Z,1.50
2019-05-11T18:51:48.308Z,1.87
2019-05-11T18:54:19.189Z,2.02
2019-05-11T18:56:48.963Z,1.60
2019-05-11T18:59:19.528Z,1.17
2019-05-11T19:04:18.672Z,1.10
2019-05-11T19:06:48.516Z,0.95
2019-05-11T19:09:18.170Z,0.80
2019-05-11T19:11:48.977Z,0.90
2019-05-11T19:14:18.525Z,0.93
2019-05-11T19:16:49.121Z,0.65
2019-05-11T19:19:18.651Z,0.70
2019-05-11T19:21:48.401Z,0.95
2019-05-11T19:24:19.029Z,0.75
2019-05-11T19:26:51.235Z,0.50
2019-05-11T19:29:20.606Z,0.62
2019-05-11T19:31:50.604Z,0.57
2019-05-11T19:34:20.685Z,0.42
2019-05-11T19:36:50.621Z,0.50
2019-05-11T19:39:20.731Z,0.42
2019-05-11T19:41:50.581Z,0.50
2019-05-11T19:44:20.571Z,0.50
2019-05-11T19:46:50.700Z,0.60
2019-05-11T19:49:20.793Z,0.50
2019-05-11T19:51:50.923Z,0.42
2019-05-11T19:54:21.108Z,0.40
2019-05-11T19:56:52.426Z,0.40
2019-05-11T19:59:21.938Z,0.37
2019-05-11T20:01:51.311Z,0.50
2019-05-11T20:04:21.131Z,0.40
2019-05-11T20:06:51.138Z,0.50
2019-05-11T20:09:21.170Z,0.38
2019-05-11T20:11:51.720Z,0.50
2019-05-11T20:14:21.207Z,0.50
2019-05-11T20:16:51.207Z,0.34
2019-05-11T20:19:21.556Z,0.37
2019-05-11T20:21:51.330Z,0.20
2019-05-11T20:24:21.428Z,0.20
2019-05-11T20:26:51.239Z,0.30
2019-05-11T20:29:21.243Z,0.30
2019-05-11T20:31:51.263Z,0.40
2019-05-11T20:34:21.290Z,0.20
2019-05-11T20:36:51.281Z,0.20
2019-05-11T20:39:21.368Z,0.40
2019-05-11T20:41:52.337Z,0.20
2019-05-11T20:44:21.735Z,0.30
2019-05-11T20:46:51.446Z,0.20
2019-05-11T20:49:21.451Z,0.30
2019-05-11T20:51:51.368Z,0.47
2019-05-11T20:54:21.520Z,0.28
2019-05-11T20:56:51.410Z,0.13
2019-05-11T20:59:21.379Z,0.20
2019-05-11T21:01:51.570Z,0.20
2019-05-11T21:04:21.572Z,0.20
2019-05-11T21:06:51.505Z,0.20
2019-05-11T21:09:21.594Z,0.20
2019-05-11T21:11:51.594Z,0.20
2019-05-11T21:14:21.777Z,0.25
2019-05-11T21:16:51.618Z,0.20
2019-05-11T21:19:21.664Z,0.20
2019-05-11T21:21:53.879Z,0.25
2019-05-11T21:24:22.859Z,0.20
2019-05-11T21:26:52.260Z,0.20
2019-05-11T21:29:21.666Z,0.20
2019-05-11T21:31:51.640Z,0.30
2019-05-11T21:34:21.666Z,0.20
2019-05-11T21:36:51.676Z,0.40
2019-05-11T21:39:21.698Z,0.20
2019-05-11T21:41:51.728Z,0.20
2019-05-11T21:44:21.742Z,0.30
2019-05-11T21:46:51.661Z,0.20
2019-05-11T21:49:21.772Z,0.20
2019-05-11T21:52:03.657Z,0.20
2019-05-11T21:56:52.403Z,0.20
2019-05-11T21:59:21.789Z,0.30
2019-05-11T22:01:51.759Z,0.20
2019-05-11T22:04:21.775Z,0.20
2019-05-11T22:06:51.859Z,0.20
2019-05-11T22:09:21.892Z,0.20
2019-05-11T22:11:51.771Z,0.26
2019-05-11T22:14:21.794Z,0.20
2019-05-11T22:16:51.792Z,0.20
2019-05-11T22:19:21.810Z,0.20
2019-05-11T22:21:51.827Z,0.10
2019-05-11T22:24:21.835Z,0.20
2019-05-11T22:26:51.857Z,0.30
2019-05-11T22:29:21.891Z,0.20
2019-05-11T22:31:51.890Z,0.20
2019-05-11T22:34:22.081Z,0.26
2019-05-11T22:36:52.363Z,0.30
2019-05-11T22:39:22.867Z,0.20
2019-05-11T22:41:53.079Z,0.20
2019-05-11T22:44:22.989Z,0.30
2019-05-11T22:46:53.052Z,0.36
2019-05-11T22:49:23.411Z,0.16
2019-05-11T22:51:53.503Z,0.30
2019-05-11T22:54:23.665Z,0.40
2019-05-11T22:56:53.741Z,0.40
2019-05-11T22:59:23.980Z,0.20
2019-05-11T23:01:54.089Z,0.26
2019-05-11T23:04:24.370Z,0.30
2019-05-11T23:06:54.568Z,0.22
2019-05-11T23:09:24.804Z,0.30
2019-05-11T23:11:54.957Z,0.20
2019-05-11T23:14:25.210Z,0.20
2019-05-11T23:16:55.473Z,0.30
2019-05-11T23:19:27.740Z,0.20
2019-05-11T23:21:58.735Z,0.23
2019-05-11T23:24:28.782Z,0.20
2019-05-11T23:26:58.907Z,0.20
2019-05-11T23:29:28.302Z,0.20
2019-05-11T23:31:58.348Z,0.15
2019-05-11T23:34:28.327Z,0.33
2019-05-11T23:36:59.125Z,0.10
2019-05-11T23:39:28.583Z,0.15
2019-05-11T23:41:58.666Z,0.30
2019-05-11T23:44:28.028Z,0.30
2019-05-11T23:46:58.107Z,0.20
2019-05-11T23:49:28.160Z,0.20
2019-05-11T23:51:58.365Z,0.30
2019-05-11T23:54:28.618Z,0.10
2019-05-11T23:56:59.027Z,0.22
2019-05-11T23:59:29.010Z,0.30
